Time;durP1;ratioP1;P1;durP2;ratioP2;P2;SDS_P1;SDS_P2;PMS_P1;PMS_P2;Temp;Humidity;BMP_temperature;BMP_pressure;BME280_temperature;BME280_humidity;BME280_pressure;Samples;Min_cycle;Max_cycle;Signal;HPM_P1;HPM_P2
2021/01/06 00:02:05;;;;;;;1.50;1.40;;;;;;;;;;5064119;28;20203;-48
2021/01/06 00:04:31;;;;;;;1.33;1.23;;;;;;;;;;5043537;28;20172;-47
2021/01/06 00:06:57;;;;;;;1.50;1.40;;;;;;;;;;5065790;28;20471;-47
2021/01/06 00:09:23;;;;;;;1.40;1.30;;;;;;;;;;5069203;28;20187;-48
2021/01/06 00:11:49;;;;;;;1.67;1.58;;;;;;;;;;5058062;28;20178;-48
2021/01/06 00:14:16;;;;;;;1.77;1.50;;;;;;;;;;5073233;28;20190;-48
2021/01/06 00:16:43;;;;;;;1.55;1.45;;;;;;;;;;5070924;28;20207;-48
2021/01/06 00:19:12;;;;;;;1.50;1.35;;;;;;;;;;5057853;28;20182;-48
2021/01/06 00:21:39;;;;;;;1.30;1.20;;;;;;;;;;5047119;28;20183;-48
2021/01/06 00:24:05;;;;;;;1.75;1.33;;;;;;;;;;5047802;28;20207;-48
2021/01/06 00:26:32;;;;;;;1.60;1.50;;;;;;;;;;5071922;28;20182;-48
2021/01/06 00:28:58;;;;;;;1.50;1.40;;;;;;;;;;5046278;28;20184;-48
2021/01/06 00:31:25;;;;;;;2.08;1.30;;;;;;;;;;5056043;28;20265;-48
2021/01/06 00:33:50;;;;;;;1.50;1.40;;;;;;;;;;5057973;28;20175;-48
2021/01/06 00:36:21;;;;;;;1.50;1.40;;;;;;;;;;5066257;28;20471;-48
2021/01/06 00:38:48;;;;;;;1.67;1.58;;;;;;;;;;5078162;28;20224;-48
2021/01/06 00:41:14;;;;;;;1.20;1.10;;;;;;;;;;5063323;28;20279;-49
2021/01/06 00:43:40;;;;;;;1.30;1.20;;;;;;;;;;5038673;28;20187;-48
2021/01/06 00:46:06;;;;;;;1.33;1.23;;;;;;;;;;5055255;28;20198;-48
2021/01/06 00:48:32;;;;;;;1.45;1.35;;;;;;;;;;5069766;28;20264;-48
2021/01/06 00:50:58;;;;;;;1.10;1.10;;;;;;;;;;5067197;28;20186;-48
2021/01/06 00:53:26;;;;;;;2.10;1.48;;;;;;;;;;5073057;28;20568;-48
2021/01/06 00:55:53;;;;;;;1.30;1.20;;;;;;;;;;5067519;28;20218;-48
2021/01/06 00:58:19;;;;;;;1.40;1.30;;;;;;;;;;5040055;28;20565;-48
2021/01/06 01:00:45;;;;;;;1.30;1.20;;;;;;;;;;5046404;28;20239;-48
2021/01/06 01:03:12;;;;;;;1.50;1.40;;;;;;;;;;5046474;28;20614;-48
2021/01/06 01:05:38;;;;;;;1.33;1.23;;;;;;;;;;5047182;28;20289;-47
2021/01/06 01:08:05;;;;;;;1.70;1.60;;;;;;;;;;5060212;28;20183;-48
2021/01/06 01:10:33;;;;;;;1.50;1.40;;;;;;;;;;5052485;28;20202;-47
2021/01/06 01:13:00;;;;;;;1.30;1.20;;;;;;;;;;5057365;28;20195;-48
2021/01/06 01:15:28;;;;;;;1.35;1.25;;;;;;;;;;5064248;28;20179;-48
2021/01/06 01:17:54;;;;;;;1.40;1.30;;;;;;;;;;5070136;28;20600;-48
2021/01/06 01:20:21;;;;;;;1.25;1.15;;;;;;;;;;5055742;28;20182;-48
2021/01/06 01:22:47;;;;;;;1.20;1.10;;;;;;;;;;5057194;28;20169;-48
2021/01/06 01:25:14;;;;;;;1.50;1.40;;;;;;;;;;5059462;28;20179;-48
2021/01/06 01:27:41;;;;;;;1.00;1.00;;;;;;;;;;5056887;28;20179;-48
2021/01/06 01:30:10;;;;;;;1.27;1.17;;;;;;;;;;5047832;28;20207;-48
2021/01/06 01:32:36;;;;;;;1.15;1.15;;;;;;;;;;5073047;28;20446;-47
2021/01/06 01:35:04;;;;;;;1.33;1.23;;;;;;;;;;5063153;28;20171;-48
2021/01/06 01:37:30;;;;;;;1.10;1.00;;;;;;;;;;5074281;28;20206;-48
2021/01/06 01:39:56;;;;;;;1.15;1.10;;;;;;;;;;5072069;28;20258;-48
2021/01/06 01:42:22;;;;;;;1.02;0.93;;;;;;;;;;5036986;28;20788;-48
2021/01/06 01:44:58;;;;;;;1.45;1.35;;;;;;;;;;5071354;28;20187;-47
2021/01/06 01:47:27;;;;;;;1.23;1.13;;;;;;;;;;5050786;28;20191;-48
2021/01/06 01:49:53;;;;;;;1.17;1.08;;;;;;;;;;5044594;28;20241;-48
2021/01/06 01:52:26;;;;;;;1.38;1.27;;;;;;;;;;5036792;28;20172;-48
2021/01/06 01:54:53;;;;;;;1.23;1.13;;;;;;;;;;5065679;28;20187;-48
2021/01/06 01:57:21;;;;;;;1.27;1.17;;;;;;;;;;5060098;28;20286;-48
2021/01/06 01:59:55;;;;;;;1.10;1.00;;;;;;;;;;5056624;28;20168;-48
2021/01/06 02:02:27;;;;;;;1.00;1.00;;;;;;;;;;5038713;28;20206;-48
2021/01/06 02:04:55;;;;;;;1.35;1.25;;;;;;;;;;5056046;28;20554;-48
2021/01/06 02:07:26;;;;;;;1.10;1.10;;;;;;;;;;5060248;28;20283;-48
2021/01/06 02:10:00;;;;;;;1.00;1.00;;;;;;;;;;5076243;28;20166;-48
2021/01/06 02:12:38;;;;;;;1.63;1.25;;;;;;;;;;5061895;28;20187;-48
2021/01/06 02:15:04;;;;;;;1.30;1.20;;;;;;;;;;5052879;28;20559;-48
2021/01/06 02:17:31;;;;;;;1.15;1.10;;;;;;;;;;5068397;28;20249;-48
2021/01/06 02:19:57;;;;;;;3.00;1.42;;;;;;;;;;5054583;28;20486;-48
2021/01/06 02:22:24;;;;;;;1.17;1.08;;;;;;;;;;5066244;28;20175;-48
2021/01/06 02:24:51;;;;;;;1.00;1.00;;;;;;;;;;5047890;28;20230;-48
2021/01/06 02:27:17;;;;;;;1.25;1.20;;;;;;;;;;5064557;28;20545;-48
2021/01/06 02:29:44;;;;;;;1.30;1.20;;;;;;;;;;5075717;28;20185;-48
2021/01/06 02:32:10;;;;;;;1.10;1.00;;;;;;;;;;5036656;28;20215;-48
2021/01/06 02:34:37;;;;;;;1.27;1.17;;;;;;;;;;5049403;28;20195;-48
2021/01/06 02:37:04;;;;;;;1.10;1.10;;;;;;;;;;5045786;28;20218;-48
2021/01/06 02:39:30;;;;;;;1.13;1.08;;;;;;;;;;5037242;28;20230;-48
2021/01/06 02:41:56;;;;;;;0.90;0.90;;;;;;;;;;5046506;28;20186;-48
2021/01/06 02:44:23;;;;;;;1.05;1.05;;;;;;;;;;5035905;28;20187;-48
2021/01/06 02:46:49;;;;;;;0.98;0.98;;;;;;;;;;5057723;28;20183;-48
2021/01/06 02:49:15;;;;;;;0.90;0.90;;;;;;;;;;5056282;28;20555;-47
2021/01/06 02:51:45;;;;;;;1.30;1.20;;;;;;;;;;5043392;28;20178;-48
2021/01/06 02:54:14;;;;;;;0.80;0.80;;;;;;;;;;5074673;28;20550;-48
2021/01/06 02:56:41;;;;;;;1.00;1.00;;;;;;;;;;5052322;28;20249;-48
2021/01/06 02:59:09;;;;;;;1.20;1.10;;;;;;;;;;5060864;28;20183;-48
2021/01/06 03:01:37;;;;;;;1.17;1.10;;;;;;;;;;5053416;28;20593;-48
2021/01/06 03:04:03;;;;;;;1.17;1.08;;;;;;;;;;5074472;28;20261;-48
2021/01/06 03:06:33;;;;;;;0.88;0.88;;;;;;;;;;5055338;28;20262;-48
2021/01/06 03:08:59;;;;;;;0.95;0.95;;;;;;;;;;5060285;28;20182;-48
2021/01/06 03:11:25;;;;;;;0.90;0.90;;;;;;;;;;5063439;28;20430;-48
2021/01/06 03:13:51;;;;;;;1.10;1.00;;;;;;;;;;5062804;28;20271;-48
2021/01/06 03:16:17;;;;;;;0.90;0.90;;;;;;;;;;5048389;28;20206;-47
2021/01/06 03:18:43;;;;;;;0.90;0.90;;;;;;;;;;5054294;28;20175;-48
2021/01/06 03:21:09;;;;;;;1.20;1.10;;;;;;;;;;5034567;28;20202;-48
2021/01/06 03:23:49;;;;;;;1.05;1.00;;;;;;;;;;5055977;28;20190;-48
2021/01/06 03:26:16;;;;;;;1.25;1.15;;;;;;;;;;5056322;28;20190;-48
2021/01/06 03:28:43;;;;;;;1.08;1.05;;;;;;;;;;5057932;28;20277;-47
2021/01/06 03:31:13;;;;;;;1.10;1.10;;;;;;;;;;5053399;28;20183;-48
2021/01/06 03:33:44;;;;;;;0.90;0.90;;;;;;;;;;5072244;28;20480;-47
2021/01/06 03:36:15;;;;;;;1.05;1.00;;;;;;;;;;5049942;28;20262;-48
2021/01/06 03:38:43;;;;;;;1.00;1.00;;;;;;;;;;5059467;28;20183;-47
2021/01/06 03:41:09;;;;;;;0.90;0.90;;;;;;;;;;5054841;28;20229;-48
2021/01/06 03:43:39;;;;;;;0.90;0.90;;;;;;;;;;5069348;28;20167;-48
2021/01/06 03:46:19;;;;;;;1.00;1.00;;;;;;;;;;5040595;28;20183;-48
2021/01/06 03:48:56;;;;;;;0.80;0.80;;;;;;;;;;5047547;28;20178;-48
2021/01/06 03:51:31;;;;;;;1.10;1.10;;;;;;;;;;5067065;28;20178;-48
2021/01/06 03:54:00;;;;;;;1.10;1.00;;;;;;;;;;5073555;28;20537;-48
2021/01/06 03:56:27;;;;;;;0.90;0.90;;;;;;;;;;5073315;28;20214;-48
2021/01/06 03:59:09;;;;;;;1.00;1.00;;;;;;;;;;5059267;28;20179;-48
2021/01/06 04:01:34;;;;;;;1.00;1.00;;;;;;;;;;5039136;28;20195;-48
2021/01/06 04:04:03;;;;;;;1.20;1.13;;;;;;;;;;5052512;28;20197;-48
2021/01/06 04:06:31;;;;;;;1.23;1.10;;;;;;;;;;5057727;28;20179;-48
2021/01/06 04:08:59;;;;;;;0.90;0.90;;;;;;;;;;5043895;28;20199;-48
2021/01/06 04:11:30;;;;;;;0.95;0.95;;;;;;;;;;5050811;28;20185;-48
2021/01/06 04:13:57;;;;;;;1.10;1.08;;;;;;;;;;5057679;28;20273;-48
2021/01/06 04:16:23;;;;;;;1.25;1.15;;;;;;;;;;5052608;28;20297;-48
2021/01/06 04:18:49;;;;;;;1.13;1.02;;;;;;;;;;5064511;28;20179;-48
2021/01/06 04:21:15;;;;;;;1.10;1.10;;;;;;;;;;5062086;28;20258;-48
2021/01/06 04:23:41;;;;;;;1.42;1.33;;;;;;;;;;5038591;28;20180;-48
2021/01/06 04:26:10;;;;;;;1.00;1.00;;;;;;;;;;5055829;28;20232;-48
2021/01/06 04:28:36;;;;;;;1.17;1.10;;;;;;;;;;5063171;28;20178;-48
2021/01/06 04:31:08;;;;;;;0.93;0.93;;;;;;;;;;5054842;28;20219;-48
2021/01/06 04:33:34;;;;;;;1.10;1.10;;;;;;;;;;5051518;28;20206;-48
2021/01/06 04:36:07;;;;;;;1.00;1.00;;;;;;;;;;5051654;28;20504;-48
2021/01/06 04:38:36;;;;;;;1.30;1.25;;;;;;;;;;5063428;28;20171;-48
2021/01/06 04:41:17;;;;;;;1.35;1.25;;;;;;;;;;5059194;28;20185;-48
2021/01/06 04:44:06;;;;;;;0.90;0.90;;;;;;;;;;5055997;28;20219;-48
2021/01/06 04:46:44;;;;;;;1.05;0.90;;;;;;;;;;5036429;28;20200;-48
2021/01/06 04:49:16;;;;;;;1.10;1.10;;;;;;;;;;5071520;28;20581;-48
2021/01/06 04:51:42;;;;;;;1.02;1.00;;;;;;;;;;5058284;28;20198;-48
2021/01/06 04:54:25;;;;;;;1.00;1.00;;;;;;;;;;5057198;28;20278;-48
2021/01/06 04:57:00;;;;;;;1.10;1.00;;;;;;;;;;5073846;28;20510;-48
2021/01/06 04:59:26;;;;;;;1.00;1.00;;;;;;;;;;5061368;28;20186;-48
2021/01/06 05:02:02;;;;;;;1.00;1.00;;;;;;;;;;5054845;28;20191;-48
2021/01/06 05:04:48;;;;;;;1.88;1.00;;;;;;;;;;5053784;28;20179;-48
2021/01/06 05:07:14;;;;;;;1.10;1.10;;;;;;;;;;5054932;28;20563;-48
2021/01/06 05:09:50;;;;;;;0.80;0.80;;;;;;;;;;5063484;28;20181;-48
2021/01/06 05:12:24;;;;;;;0.90;0.90;;;;;;;;;;5043940;28;20182;-47
2021/01/06 05:14:55;;;;;;;1.00;1.00;;;;;;;;;;5076774;28;20198;-48
2021/01/06 05:17:21;;;;;;;1.05;1.05;;;;;;;;;;5042000;28;20199;-48
2021/01/06 05:19:48;;;;;;;1.05;0.95;;;;;;;;;;5055778;28;20189;-48
2021/01/06 05:22:14;;;;;;;1.00;1.00;;;;;;;;;;5057295;28;20309;-47
2021/01/06 05:24:48;;;;;;;3.05;1.55;;;;;;;;;;5073462;28;20206;-47
2021/01/06 05:27:14;;;;;;;4.90;2.10;;;;;;;;;;5051678;28;20187;-48
2021/01/06 05:29:44;;;;;;;5.05;2.45;;;;;;;;;;5056733;28;20186;-48
2021/01/06 05:32:28;;;;;;;8.68;2.80;;;;;;;;;;5059392;28;20568;-48
2021/01/06 05:34:57;;;;;;;11.27;2.67;;;;;;;;;;5058399;28;20174;-48
2021/01/06 05:37:24;;;;;;;5.43;2.50;;;;;;;;;;5051125;28;20221;-48
2021/01/06 05:39:51;;;;;;;9.25;2.90;;;;;;;;;;5063970;28;20190;-48
2021/01/06 05:42:24;;;;;;;8.10;2.47;;;;;;;;;;5037030;28;20168;-48
2021/01/06 05:44:55;;;;;;;7.47;2.70;;;;;;;;;;5063321;28;20570;-48
2021/01/06 05:47:40;;;;;;;6.78;2.65;;;;;;;;;;5058246;28;20174;-48
2021/01/06 05:50:08;;;;;;;8.75;2.70;;;;;;;;;;5051054;28;20211;-48
2021/01/06 05:52:34;;;;;;;6.68;2.58;;;;;;;;;;5048095;28;20229;-48
2021/01/06 05:55:02;;;;;;;6.72;2.20;;;;;;;;;;5055192;28;20175;-47
2021/01/06 05:57:34;;;;;;;6.30;2.58;;;;;;;;;;5044487;28;20196;-48
2021/01/06 06:00:26;;;;;;;7.05;2.50;;;;;;;;;;5060045;28;20262;-48
2021/01/06 06:02:56;;;;;;;8.50;2.38;;;;;;;;;;5049541;28;20190;-48
2021/01/06 06:05:38;;;;;;;11.98;2.90;;;;;;;;;;5055951;28;20187;-48
2021/01/06 06:08:04;;;;;;;5.63;2.67;;;;;;;;;;5042457;28;20179;-48
2021/01/06 06:10:35;;;;;;;6.53;2.42;;;;;;;;;;5060867;28;20191;-48
2021/01/06 06:13:01;;;;;;;5.50;2.40;;;;;;;;;;5043297;28;20582;-48
2021/01/06 06:15:49;;;;;;;5.03;1.90;;;;;;;;;;5059094;28;20171;-48
2021/01/06 06:18:18;;;;;;;5.15;2.53;;;;;;;;;;5055522;28;20210;-48
2021/01/06 06:20:50;;;;;;;8.00;3.10;;;;;;;;;;5046644;28;20195;-48
2021/01/06 06:23:36;;;;;;;6.55;2.60;;;;;;;;;;5071090;28;20198;-48
2021/01/06 06:26:14;;;;;;;6.95;2.67;;;;;;;;;;5038819;28;20175;-48
2021/01/06 06:28:46;;;;;;;4.93;2.17;;;;;;;;;;5055985;28;20200;-48
2021/01/06 06:31:20;;;;;;;6.05;2.70;;;;;;;;;;5061802;28;20170;-48
2021/01/06 06:33:52;;;;;;;6.97;2.30;;;;;;;;;;5042675;28;20175;-48
2021/01/06 06:36:21;;;;;;;5.78;2.17;;;;;;;;;;5044687;28;20625;-48
2021/01/06 06:38:47;;;;;;;4.15;2.42;;;;;;;;;;5062030;28;20542;-48
2021/01/06 06:41:22;;;;;;;7.43;2.38;;;;;;;;;;5059524;28;20268;-48
2021/01/06 06:43:50;;;;;;;7.88;2.35;;;;;;;;;;5065100;28;20193;-48
2021/01/06 06:46:27;;;;;;;5.90;2.20;;;;;;;;;;5056055;28;20175;-48
2021/01/06 06:49:03;;;;;;;5.18;2.20;;;;;;;;;;5066347;28;20680;-48
2021/01/06 06:51:48;;;;;;;3.95;2.05;;;;;;;;;;5048070;28;20447;-48
2021/01/06 06:54:32;;;;;;;6.07;2.42;;;;;;;;;;5062652;28;20629;-48
2021/01/06 06:57:02;;;;;;;5.25;2.22;;;;;;;;;;5050743;28;20242;-48
2021/01/06 06:59:30;;;;;;;5.55;2.58;;;;;;;;;;5056616;28;20176;-49
2021/01/06 07:02:01;;;;;;;3.10;1.80;;;;;;;;;;5058879;28;20215;-49
2021/01/06 07:04:27;;;;;;;5.63;2.00;;;;;;;;;;5054659;28;20167;-48
2021/01/06 07:06:58;;;;;;;5.10;2.30;;;;;;;;;;5060266;28;20184;-49
2021/01/06 07:09:27;;;;;;;5.53;2.53;;;;;;;;;;5059807;28;20187;-48
2021/01/06 07:11:59;;;;;;;5.72;2.60;;;;;;;;;;5055698;28;20187;-48
2021/01/06 07:14:29;;;;;;;5.60;2.90;;;;;;;;;;5060378;28;20557;-49
2021/01/06 07:16:58;;;;;;;4.72;2.13;;;;;;;;;;5042340;28;20230;-49
2021/01/06 07:19:27;;;;;;;4.63;2.50;;;;;;;;;;5056039;28;20179;-49
2021/01/06 07:21:58;;;;;;;6.05;2.60;;;;;;;;;;5055360;28;20182;-49
2021/01/06 07:24:24;;;;;;;4.90;2.25;;;;;;;;;;5053787;28;20191;-49
2021/01/06 07:26:55;;;;;;;5.03;2.85;;;;;;;;;;5058769;28;20171;-48
2021/01/06 07:29:24;;;;;;;4.68;2.42;;;;;;;;;;5063038;28;20260;-48
2021/01/06 07:31:52;;;;;;;5.72;2.60;;;;;;;;;;5041517;28;20179;-48
2021/01/06 07:34:22;;;;;;;4.38;2.60;;;;;;;;;;5056811;28;20225;-49
2021/01/06 07:36:51;;;;;;;4.35;2.30;;;;;;;;;;5053821;28;20202;-48
2021/01/06 07:39:22;;;;;;;6.65;2.60;;;;;;;;;;5052507;28;20171;-49
2021/01/06 07:41:48;;;;;;;3.70;2.47;;;;;;;;;;5060921;28;20213;-49
2021/01/06 07:44:25;;;;;;;3.90;2.20;;;;;;;;;;5055550;28;20172;-48
2021/01/06 07:47:10;;;;;;;4.00;2.22;;;;;;;;;;5060020;28;20540;-49
2021/01/06 07:49:42;;;;;;;3.85;2.40;;;;;;;;;;5052475;28;20182;-48
2021/01/06 07:52:18;;;;;;;4.68;2.40;;;;;;;;;;5035522;28;20187;-48
2021/01/06 07:54:54;;;;;;;4.10;2.63;;;;;;;;;;5057275;28;20190;-48
2021/01/06 07:57:36;;;;;;;4.60;2.45;;;;;;;;;;5055670;28;20280;-48
2021/01/06 08:00:06;;;;;;;5.63;2.60;;;;;;;;;;5053703;28;20183;-49
2021/01/06 08:02:58;;;;;;;3.58;2.20;;;;;;;;;;5058614;28;20185;-48
2021/01/06 08:05:29;;;;;;;3.47;2.30;;;;;;;;;;5071406;28;20178;-49
2021/01/06 08:08:28;;;;;;;4.28;2.30;;;;;;;;;;5066425;28;20478;-48
2021/01/06 08:11:04;;;;;;;4.05;2.33;;;;;;;;;;5031723;28;20207;-48
2021/01/06 08:13:32;;;;;;;3.45;2.10;;;;;;;;;;5065354;28;20201;-49
2021/01/06 08:15:58;;;;;;;3.42;2.15;;;;;;;;;;5066602;28;20214;-48
2021/01/06 08:18:33;;;;;;;3.67;1.90;;;;;;;;;;5063643;28;20249;-48
2021/01/06 08:21:04;;;;;;;3.20;2.42;;;;;;;;;;5058394;28;20167;-48
2021/01/06 08:24:05;;;;;;;3.30;2.10;;;;;;;;;;5056507;28;20176;-48
2021/01/06 08:26:32;;;;;;;4.78;2.45;;;;;;;;;;5002931;28;20730;-48
2021/01/06 08:29:08;;;;;;;3.08;2.00;;;;;;;;;;5069435;28;20193;-49
2021/01/06 08:31:35;;;;;;;4.03;2.60;;;;;;;;;;5052883;28;20175;-49
2021/01/06 08:34:01;;;;;;;4.15;2.28;;;;;;;;;;5058003;28;20187;-49
2021/01/06 08:36:30;;;;;;;4.03;1.90;;;;;;;;;;5061276;28;20290;-49
2021/01/06 08:39:25;;;;;;;3.30;2.22;;;;;;;;;;5068109;28;20206;-48
2021/01/06 08:41:52;;;;;;;3.20;1.90;;;;;;;;;;5059566;28;20289;-48
2021/01/06 08:44:27;;;;;;;3.97;2.13;;;;;;;;;;5057599;28;20534;-48
2021/01/06 08:46:58;;;;;;;2.58;2.00;;;;;;;;;;5057363;28;20182;-48
2021/01/06 08:49:30;;;;;;;2.80;1.80;;;;;;;;;;5055883;28;20202;-48
2021/01/06 08:52:10;;;;;;;3.17;2.00;;;;;;;;;;5069145;28;20194;-48
2021/01/06 08:54:36;;;;;;;2.25;2.00;;;;;;;;;;5072411;28;20452;-48
2021/01/06 08:57:03;;;;;;;2.92;1.85;;;;;;;;;;5056484;28;20240;-48
2021/01/06 08:59:34;;;;;;;3.20;1.70;;;;;;;;;;5077099;28;20626;-49
2021/01/06 09:02:00;;;;;;;6.03;2.00;;;;;;;;;;5077510;28;20308;-48
2021/01/06 09:04:38;;;;;;;2.90;1.77;;;;;;;;;;5057156;28;20561;-48
2021/01/06 09:07:07;;;;;;;3.63;1.95;;;;;;;;;;5061645;28;20186;-48
2021/01/06 09:09:33;;;;;;;4.25;1.73;;;;;;;;;;5057939;28;20175;-48
2021/01/06 09:11:59;;;;;;;2.80;1.48;;;;;;;;;;5057564;28;20222;-48
2021/01/06 09:14:30;;;;;;;2.33;1.70;;;;;;;;;;5053858;28;20199;-48
2021/01/06 09:17:17;;;;;;;3.50;1.90;;;;;;;;;;5043486;28;20233;-48
2021/01/06 09:19:58;;;;;;;2.53;1.70;;;;;;;;;;5055942;28;20178;-48
2021/01/06 09:22:24;;;;;;;2.40;1.60;;;;;;;;;;5064291;28;20573;-48
2021/01/06 09:24:53;;;;;;;3.50;1.60;;;;;;;;;;5058689;28;20729;-48
2021/01/06 09:27:41;;;;;;;2.80;1.80;;;;;;;;;;5045267;28;20206;-48
2021/01/06 09:30:17;;;;;;;1.45;1.30;;;;;;;;;;5066509;28;20179;-48
2021/01/06 09:32:46;;;;;;;2.00;1.60;;;;;;;;;;5048753;28;20251;-49
2021/01/06 09:35:15;;;;;;;2.28;1.50;;;;;;;;;;5046514;28;20176;-49
2021/01/06 09:37:44;;;;;;;2.05;1.45;;;;;;;;;;5048344;28;20276;-49
2021/01/06 09:40:18;;;;;;;1.55;1.40;;;;;;;;;;5063455;28;20202;-48
2021/01/06 09:42:45;;;;;;;2.13;1.40;;;;;;;;;;5075015;28;20179;-49
2021/01/06 09:45:18;;;;;;;1.83;1.30;;;;;;;;;;5072981;28;20269;-48
2021/01/06 09:47:44;;;;;;;2.13;1.48;;;;;;;;;;5067263;28;20187;-49
2021/01/06 09:50:22;;;;;;;1.67;1.48;;;;;;;;;;5055268;28;20181;-49
2021/01/06 09:52:50;;;;;;;2.65;1.83;;;;;;;;;;5069642;28;20214;-48
2021/01/06 09:55:17;;;;;;;2.47;1.70;;;;;;;;;;5076150;28;20288;-48
2021/01/06 09:57:44;;;;;;;3.50;1.42;;;;;;;;;;5067511;28;20210;-48
2021/01/06 10:00:23;;;;;;;1.50;1.30;;;;;;;;;;5056658;28;20167;-48
2021/01/06 10:02:50;;;;;;;1.70;1.40;;;;;;;;;;5057495;28;20179;-48
2021/01/06 10:05:31;;;;;;;2.13;1.30;;;;;;;;;;5064526;28;20213;-49
2021/01/06 10:08:00;;;;;;;2.15;1.60;;;;;;;;;;5069169;28;20188;-49
2021/01/06 10:10:30;;;;;;;2.03;1.20;;;;;;;;;;5066025;28;20186;-48
2021/01/06 10:12:56;;;;;;;1.75;1.50;;;;;;;;;;5062976;28;20830;-48
2021/01/06 10:15:40;;;;;;;1.63;1.20;;;;;;;;;;5075137;28;20178;-48
2021/01/06 10:18:21;;;;;;;3.22;1.63;;;;;;;;;;5073250;28;20217;-48
2021/01/06 10:20:59;;;;;;;1.55;1.30;;;;;;;;;;5073470;28;20170;-49
2021/01/06 10:23:44;;;;;;;2.20;1.52;;;;;;;;;;5055927;28;20259;-48
2021/01/06 10:26:29;;;;;;;1.60;1.30;;;;;;;;;;5059915;28;20171;-49
2021/01/06 10:28:56;;;;;;;2.40;1.52;;;;;;;;;;5060525;28;20276;-49
2021/01/06 10:31:23;;;;;;;1.90;1.30;;;;;;;;;;5051193;28;20174;-48
2021/01/06 10:33:59;;;;;;;1.35;1.25;;;;;;;;;;5061708;28;20282;-48
2021/01/06 10:36:28;;;;;;;2.55;1.10;;;;;;;;;;5051744;28;20171;-48
2021/01/06 10:38:54;;;;;;;1.30;1.00;;;;;;;;;;5062490;28;20539;-48
2021/01/06 10:41:25;;;;;;;1.20;0.98;;;;;;;;;;5055181;28;20217;-49
2021/01/06 10:43:52;;;;;;;2.30;1.20;;;;;;;;;;5060767;28;20182;-48
2021/01/06 10:46:33;;;;;;;3.47;1.38;;;;;;;;;;5054459;28;20298;-50
2021/01/06 10:48:59;;;;;;;1.67;1.25;;;;;;;;;;5061956;28;20187;-49
2021/01/06 10:51:44;;;;;;;2.75;1.50;;;;;;;;;;5044267;28;20241;-49
2021/01/06 10:54:10;;;;;;;1.27;1.00;;;;;;;;;;5057726;28;20179;-48
2021/01/06 10:56:36;;;;;;;2.15;1.30;;;;;;;;;;5055200;28;20444;-50
2021/01/06 10:59:05;;;;;;;1.95;1.15;;;;;;;;;;5061890;28;20164;-49
2021/01/06 11:01:52;;;;;;;1.60;1.10;;;;;;;;;;5054658;28;20251;-48
2021/01/06 11:04:24;;;;;;;0.90;0.90;;;;;;;;;;5040071;28;20175;-48
2021/01/06 11:07:09;;;;;;;1.60;1.30;;;;;;;;;;5069116;28;20290;-48
2021/01/06 11:09:35;;;;;;;2.25;1.20;;;;;;;;;;5055196;28;20179;-48
2021/01/06 11:12:01;;;;;;;1.52;1.17;;;;;;;;;;5057370;28;20185;-48
2021/01/06 11:14:56;;;;;;;2.30;1.10;;;;;;;;;;5062298;28;20266;-49
2021/01/06 11:17:33;;;;;;;1.95;1.05;;;;;;;;;;5001393;28;20482;-48
2021/01/06 11:20:02;;;;;;;1.88;1.33;;;;;;;;;;5060205;28;20672;-49
2021/01/06 11:22:34;;;;;;;1.13;1.00;;;;;;;;;;5061305;28;20220;-48
2021/01/06 11:25:02;;;;;;;1.33;1.10;;;;;;;;;;5035705;28;20164;-49
2021/01/06 11:27:40;;;;;;;2.55;1.00;;;;;;;;;;5049195;28;20168;-48
2021/01/06 11:30:21;;;;;;;1.90;1.20;;;;;;;;;;5046895;28;20210;-49
2021/01/06 11:32:48;;;;;;;1.13;0.80;;;;;;;;;;5061660;28;20214;-48
2021/01/06 11:35:16;;;;;;;2.22;1.00;;;;;;;;;;5053028;28;20211;-49
2021/01/06 11:37:43;;;;;;;0.80;0.80;;;;;;;;;;5056658;28;20251;-48
2021/01/06 11:40:14;;;;;;;0.85;0.85;;;;;;;;;;5061290;28;20186;-48
2021/01/06 11:42:56;;;;;;;0.85;0.82;;;;;;;;;;5054457;28;20258;-49
2021/01/06 11:45:24;;;;;;;1.20;1.00;;;;;;;;;;5066708;28;20178;-49
2021/01/06 11:47:57;;;;;;;0.70;0.70;;;;;;;;;;5067050;28;20270;-48
2021/01/06 11:50:26;;;;;;;1.20;0.73;;;;;;;;;;5059370;28;20179;-47
2021/01/06 11:53:06;;;;;;;2.92;0.90;;;;;;;;;;5051697;28;20171;-48
2021/01/06 11:55:36;;;;;;;1.13;1.00;;;;;;;;;;5060831;28;20581;-48
2021/01/06 11:58:20;;;;;;;3.40;0.98;;;;;;;;;;5057757;28;20229;-48
2021/01/06 12:01:05;;;;;;;1.17;0.98;;;;;;;;;;5049135;28;20206;-49
2021/01/06 12:03:43;;;;;;;0.95;0.70;;;;;;;;;;5056997;28;20179;-49
2021/01/06 12:06:32;;;;;;;1.05;0.82;;;;;;;;;;5042958;28;20221;-49
2021/01/06 12:08:59;;;;;;;1.27;0.98;;;;;;;;;;5053798;28;20275;-48
2021/01/06 12:11:31;;;;;;;1.00;0.90;;;;;;;;;;5054345;28;20820;-47
2021/01/06 12:14:06;;;;;;;1.70;0.93;;;;;;;;;;5061111;28;20205;-49
2021/01/06 12:16:51;;;;;;;2.00;0.95;;;;;;;;;;5054472;28;20182;-48
2021/01/06 12:19:16;;;;;;;1.20;1.00;;;;;;;;;;5053470;28;20199;-48
2021/01/06 12:21:46;;;;;;;3.25;1.10;;;;;;;;;;5054360;28;20325;-49
2021/01/06 12:24:40;;;;;;;1.00;0.80;;;;;;;;;;5051449;28;20257;-48
2021/01/06 12:27:09;;;;;;;1.10;0.82;;;;;;;;;;5047805;28;20184;-48
2021/01/06 12:29:54;;;;;;;2.13;0.90;;;;;;;;;;5043786;28;20509;-48
2021/01/06 12:32:38;;;;;;;1.15;0.90;;;;;;;;;;5042834;28;20187;-48
2021/01/06 12:35:19;;;;;;;4.60;1.23;;;;;;;;;;5053582;28;20187;-49
2021/01/06 12:37:55;;;;;;;1.13;0.75;;;;;;;;;;5055780;28;20264;-49
2021/01/06 12:40:23;;;;;;;1.10;0.98;;;;;;;;;;5070870;28;20197;-49
2021/01/06 12:42:49;;;;;;;0.85;0.73;;;;;;;;;;5054411;28;20254;-49
2021/01/06 12:45:15;;;;;;;0.95;0.85;;;;;;;;;;5065042;28;20254;-48
2021/01/06 12:47:50;;;;;;;26.15;5.90;;;;;;;;;;5053666;28;20237;-49
2021/01/06 12:50:18;;;;;;;54.15;9.95;;;;;;;;;;5053958;28;20265;-48
2021/01/06 12:52:47;;;;;;;40.97;9.05;;;;;;;;;;5072029;28;20231;-49
2021/01/06 12:55:16;;;;;;;41.72;10.45;;;;;;;;;;5072936;28;20201;-49
2021/01/06 12:57:48;;;;;;;49.47;10.70;;;;;;;;;;5060184;28;20195;-48
2021/01/06 13:00:33;;;;;;;57.42;12.20;;;;;;;;;;5051573;28;20180;-49
2021/01/06 13:03:14;;;;;;;53.30;13.05;;;;;;;;;;5055342;28;20549;-48
2021/01/06 13:05:40;;;;;;;53.78;12.90;;;;;;;;;;5058743;28;20179;-49
2021/01/06 13:08:19;;;;;;;46.90;12.48;;;;;;;;;;5063657;28;20198;-49
2021/01/06 13:10:46;;;;;;;56.08;12.88;;;;;;;;;;5050588;28;20209;-49
2021/01/06 13:13:17;;;;;;;56.13;13.48;;;;;;;;;;5049423;28;20253;-49
2021/01/06 13:15:53;;;;;;;59.20;11.88;;;;;;;;;;5058788;28;20274;-51
2021/01/06 13:18:34;;;;;;;44.42;11.45;;;;;;;;;;5056867;28;20486;-48
2021/01/06 13:21:02;;;;;;;44.88;11.88;;;;;;;;;;5048468;28;20207;-49
2021/01/06 13:23:33;;;;;;;44.83;12.23;;;;;;;;;;5053480;28;20175;-48
2021/01/06 13:26:20;;;;;;;48.55;12.35;;;;;;;;;;5045862;28;20187;-49
2021/01/06 13:28:59;;;;;;;41.75;11.05;;;;;;;;;;5056684;28;20207;-49
2021/01/06 13:31:28;;;;;;;31.40;9.82;;;;;;;;;;5046141;28;20279;-49
2021/01/06 13:34:06;;;;;;;36.85;10.15;;;;;;;;;;5057417;28;20186;-49
2021/01/06 13:36:41;;;;;;;37.58;10.32;;;;;;;;;;5043123;28;20175;-49
2021/01/06 13:39:19;;;;;;;26.38;8.93;;;;;;;;;;5076863;28;20201;-48
2021/01/06 13:41:46;;;;;;;31.50;9.52;;;;;;;;;;5054999;28;20199;-49
2021/01/06 13:44:28;;;;;;;27.67;9.07;;;;;;;;;;5053640;28;20179;-48
2021/01/06 13:47:06;;;;;;;26.08;8.63;;;;;;;;;;5059187;28;20265;-48
2021/01/06 13:49:35;;;;;;;25.17;8.00;;;;;;;;;;5062574;28;20231;-49
2021/01/06 13:52:01;;;;;;;24.00;7.95;;;;;;;;;;5058515;28;20175;-49
2021/01/06 13:54:33;;;;;;;26.27;7.55;;;;;;;;;;5055114;28;20602;-49
2021/01/06 13:57:04;;;;;;;22.88;8.07;;;;;;;;;;5057274;28;20289;-48
2021/01/06 13:59:39;;;;;;;26.73;7.57;;;;;;;;;;5076791;28;20181;-49
2021/01/06 14:02:12;;;;;;;22.55;7.72;;;;;;;;;;5057931;28;20182;-49
2021/01/06 14:04:46;;;;;;;20.45;7.55;;;;;;;;;;5035861;28;20182;-48
2021/01/06 14:07:14;;;;;;;24.30;7.53;;;;;;;;;;5047591;28;20162;-49
2021/01/06 14:09:53;;;;;;;23.50;7.05;;;;;;;;;;5059757;28;20594;-49
2021/01/06 14:12:38;;;;;;;19.55;7.25;;;;;;;;;;5062896;28;20261;-49
2021/01/06 14:15:22;;;;;;;16.80;7.13;;;;;;;;;;5064762;28;20194;-49
2021/01/06 14:18:01;;;;;;;17.55;6.22;;;;;;;;;;5055044;28;20465;-49
2021/01/06 14:20:27;;;;;;;17.92;7.18;;;;;;;;;;5050055;28;20755;-48
2021/01/06 14:23:13;;;;;;;16.35;6.63;;;;;;;;;;5059241;28;20178;-48
2021/01/06 14:25:45;;;;;;;18.70;6.30;;;;;;;;;;5041111;28;20196;-49
2021/01/06 14:28:21;;;;;;;18.25;6.68;;;;;;;;;;5062218;28;20179;-49
2021/01/06 14:30:50;;;;;;;15.38;6.15;;;;;;;;;;5067067;28;20430;-48
2021/01/06 14:33:22;;;;;;;16.08;5.95;;;;;;;;;;5070924;28;20182;-49
2021/01/06 14:35:51;;;;;;;11.55;5.80;;;;;;;;;;5055885;28;20187;-49
2021/01/06 14:38:24;;;;;;;12.55;5.97;;;;;;;;;;5065117;28;20208;-48
2021/01/06 14:40:51;;;;;;;13.60;5.63;;;;;;;;;;5048406;28;20194;-48
2021/01/06 14:43:34;;;;;;;14.95;5.70;;;;;;;;;;5069498;28;20255;-48
2021/01/06 14:46:02;;;;;;;13.02;5.65;;;;;;;;;;5046485;28;20176;-48
2021/01/06 14:48:36;;;;;;;10.57;5.55;;;;;;;;;;5049580;28;20183;-48
2021/01/06 14:51:25;;;;;;;12.25;5.70;;;;;;;;;;5053462;28;20546;-48
2021/01/06 14:54:04;;;;;;;12.82;5.28;;;;;;;;;;5064683;28;20492;-48
2021/01/06 14:56:42;;;;;;;15.40;6.15;;;;;;;;;;5061920;28;20215;-48
2021/01/06 14:59:14;;;;;;;11.30;5.35;;;;;;;;;;5064261;28;20254;-48
2021/01/06 15:01:42;;;;;;;13.35;5.32;;;;;;;;;;5057408;28;20186;-50
2021/01/06 15:04:17;;;;;;;14.55;5.03;;;;;;;;;;5054289;28;20218;-49
2021/01/06 15:06:56;;;;;;;15.02;5.53;;;;;;;;;;5055487;28;20514;-48
2021/01/06 15:09:45;;;;;;;10.90;4.78;;;;;;;;;;5035102;28;20167;-49